KCDR/CDR METAR and TAF weather

Enter ICAO airport designator
Station Type Date Time Source
KCDR METAR 2018/12/10 23:53 UTC NOAA

KCDR 102353Z AUTO 23003KT 10SM CLR M03/M06 A3002 RMK AO2 SLP222 T10281061 10022 21033 56004


Station Type Date Time Source
KCDR Decoded METAR 2018/12/10 23:53 UTC NOAA

CHADRON MUNICIPAL AIRPORT, NE, United States (KCDR) 42-50N 103-06W 1010M
Dec 10, 2018 - 06:53 PM EST / 2018.12.10 2353 UTC
Wind: from the SW (230 degrees) at 3 MPH (3 KT):0
Visibility: 10 mile(s):0
Sky conditions: clear
Temperature: 27.0 F (-2.8 C)
Dew Point: 21.0 F (-6.1 C)
Relative Humidity: 77%
Pressure (altimeter): 30.02 in. Hg (1016 hPa)
Pressure tendency: 0.01 inches (0.4 hPa) lower than three hours ago
ob: KCDR 102353Z AUTO 23003KT 10SM CLR M03/M06 A3002 RMK AO2 SLP222 T10281061 10022 21033 56004
cycle: 0

Station Type Date Time Source
KCDR TAF 2018/12/10 18:27 UTC NOAA

TAF KCDR 101724Z 1018/1118 00000KT P6SM SKC
FM110000 25005KT P6SM SCT150


Example: see airport list